sensor_id;sensor_type;location;lat;lon;timestamp;P1;durP1;ratioP1;P2;durP2;ratioP2
28353;SDS011;15603;50.878;8.036;2024-03-25T00:00:10;5.65;;;1.38;;
28353;SDS011;15603;50.878;8.036;2024-03-25T00:02:38;4.60;;;1.80;;
28353;SDS011;15603;50.878;8.036;2024-03-25T00:05:05;5.43;;;1.45;;
28353;SDS011;15603;50.878;8.036;2024-03-25T00:07:35;5.88;;;1.23;;
28353;SDS011;15603;50.878;8.036;2024-03-25T00:10:02;4.70;;;1.50;;
28353;SDS011;15603;50.878;8.036;2024-03-25T00:12:29;5.25;;;1.80;;
28353;SDS011;15603;50.878;8.036;2024-03-25T00:14:55;3.90;;;1.45;;
28353;SDS011;15603;50.878;8.036;2024-03-25T00:17:21;10.88;;;3.40;;
28353;SDS011;15603;50.878;8.036;2024-03-25T00:19:48;7.68;;;2.00;;
28353;SDS011;15603;50.878;8.036;2024-03-25T00:22:17;3.85;;;2.10;;
28353;SDS011;15603;50.878;8.036;2024-03-25T00:24:45;5.10;;;1.77;;
28353;SDS011;15603;50.878;8.036;2024-03-25T00:27:15;7.63;;;2.17;;
28353;SDS011;15603;50.878;8.036;2024-03-25T00:29:41;12.07;;;2.08;;
28353;SDS011;15603;50.878;8.036;2024-03-25T00:32:07;5.60;;;1.63;;
28353;SDS011;15603;50.878;8.036;2024-03-25T00:34:34;6.95;;;1.98;;
28353;SDS011;15603;50.878;8.036;2024-03-25T00:37:00;2.35;;;1.52;;
28353;SDS011;15603;50.878;8.036;2024-03-25T00:39:27;4.55;;;2.05;;
28353;SDS011;15603;50.878;8.036;2024-03-25T00:41:55;7.40;;;1.80;;
28353;SDS011;15603;50.878;8.036;2024-03-25T00:44:21;10.50;;;2.28;;
28353;SDS011;15603;50.878;8.036;2024-03-25T00:46:47;7.75;;;1.63;;
28353;SDS011;15603;50.878;8.036;2024-03-25T00:49:14;5.72;;;2.92;;
28353;SDS011;15603;50.878;8.036;2024-03-25T00:51:40;2.47;;;1.52;;
28353;SDS011;15603;50.878;8.036;2024-03-25T00:54:06;9.82;;;2.75;;
28353;SDS011;15603;50.878;8.036;2024-03-25T00:56:33;4.88;;;1.60;;
28353;SDS011;15603;50.878;8.036;2024-03-25T00:58:59;4.93;;;1.50;;
28353;SDS011;15603;50.878;8.036;2024-03-25T01:01:28;4.47;;;1.75;;
28353;SDS011;15603;50.878;8.036;2024-03-25T01:03:55;4.63;;;2.40;;
28353;SDS011;15603;50.878;8.036;2024-03-25T01:06:21;10.70;;;1.67;;
28353;SDS011;15603;50.878;8.036;2024-03-25T01:08:49;4.35;;;1.27;;
28353;SDS011;15603;50.878;8.036;2024-03-25T01:11:15;8.95;;;1.15;;
28353;SDS011;15603;50.878;8.036;2024-03-25T01:13:42;5.32;;;1.08;;
28353;SDS011;15603;50.878;8.036;2024-03-25T01:16:08;3.33;;;1.48;;
28353;SDS011;15603;50.878;8.036;2024-03-25T01:18:35;3.08;;;1.33;;
28353;SDS011;15603;50.878;8.036;2024-03-25T01:21:02;2.95;;;1.83;;
28353;SDS011;15603;50.878;8.036;2024-03-25T01:23:29;4.78;;;1.67;;
28353;SDS011;15603;50.878;8.036;2024-03-25T01:25:55;15.63;;;2.05;;
28353;SDS011;15603;50.878;8.036;2024-03-25T01:28:21;10.98;;;1.55;;
28353;SDS011;15603;50.878;8.036;2024-03-25T01:30:48;8.35;;;1.67;;
28353;SDS011;15603;50.878;8.036;2024-03-25T01:33:15;6.55;;;1.27;;
28353;SDS011;15603;50.878;8.036;2024-03-25T01:35:41;12.43;;;1.63;;
28353;SDS011;15603;50.878;8.036;2024-03-25T01:38:07;11.23;;;1.50;;
28353;SDS011;15603;50.878;8.036;2024-03-25T01:40:34;3.28;;;1.25;;
28353;SDS011;15603;50.878;8.036;2024-03-25T01:43:02;1.92;;;1.13;;
28353;SDS011;15603;50.878;8.036;2024-03-25T01:45:29;7.32;;;1.20;;
28353;SDS011;15603;50.878;8.036;2024-03-25T01:47:57;2.80;;;1.48;;
28353;SDS011;15603;50.878;8.036;2024-03-25T01:50:25;7.18;;;1.67;;
28353;SDS011;15603;50.878;8.036;2024-03-25T01:52:52;9.18;;;2.13;;
28353;SDS011;15603;50.878;8.036;2024-03-25T01:55:24;7.65;;;2.10;;
28353;SDS011;15603;50.878;8.036;2024-03-25T01:57:53;2.83;;;1.20;;
28353;SDS011;15603;50.878;8.036;2024-03-25T02:00:19;5.88;;;1.88;;
28353;SDS011;15603;50.878;8.036;2024-03-25T02:02:48;4.28;;;2.28;;
28353;SDS011;15603;50.878;8.036;2024-03-25T02:05:15;3.65;;;1.58;;
28353;SDS011;15603;50.878;8.036;2024-03-25T02:07:43;4.53;;;1.55;;
28353;SDS011;15603;50.878;8.036;2024-03-25T02:10:09;3.22;;;1.42;;
28353;SDS011;15603;50.878;8.036;2024-03-25T02:12:36;4.57;;;1.45;;
28353;SDS011;15603;50.878;8.036;2024-03-25T02:15:06;5.13;;;1.13;;
28353;SDS011;15603;50.878;8.036;2024-03-25T02:17:33;4.95;;;1.45;;
28353;SDS011;15603;50.878;8.036;2024-03-25T02:19:59;5.38;;;1.80;;
28353;SDS011;15603;50.878;8.036;2024-03-25T02:22:25;3.80;;;2.08;;
28353;SDS011;15603;50.878;8.036;2024-03-25T02:24:52;3.17;;;1.08;;
28353;SDS011;15603;50.878;8.036;2024-03-25T02:27:19;10.05;;;1.58;;
28353;SDS011;15603;50.878;8.036;2024-03-25T02:29:45;2.47;;;1.27;;
28353;SDS011;15603;50.878;8.036;2024-03-25T02:32:11;2.45;;;0.90;;
28353;SDS011;15603;50.878;8.036;2024-03-25T02:34:45;3.00;;;1.17;;
28353;SDS011;15603;50.878;8.036;2024-03-25T02:37:14;3.80;;;1.60;;
28353;SDS011;15603;50.878;8.036;2024-03-25T02:39:41;5.22;;;1.48;;
28353;SDS011;15603;50.878;8.036;2024-03-25T02:42:08;3.75;;;1.17;;
28353;SDS011;15603;50.878;8.036;2024-03-25T02:44:34;7.88;;;1.45;;
28353;SDS011;15603;50.878;8.036;2024-03-25T02:47:00;5.13;;;0.95;;
28353;SDS011;15603;50.878;8.036;2024-03-25T02:49:27;2.08;;;0.70;;
28353;SDS011;15603;50.878;8.036;2024-03-25T02:51:53;3.55;;;1.00;;
28353;SDS011;15603;50.878;8.036;2024-03-25T02:54:20;5.90;;;1.48;;
28353;SDS011;15603;50.878;8.036;2024-03-25T02:56:46;1.45;;;0.70;;
28353;SDS011;15603;50.878;8.036;2024-03-25T02:59:12;3.13;;;0.98;;
28353;SDS011;15603;50.878;8.036;2024-03-25T03:01:38;3.55;;;0.90;;
28353;SDS011;15603;50.878;8.036;2024-03-25T03:04:04;7.32;;;1.02;;
28353;SDS011;15603;50.878;8.036;2024-03-25T03:06:30;1.15;;;1.00;;
28353;SDS011;15603;50.878;8.036;2024-03-25T03:08:57;2.88;;;0.77;;
28353;SDS011;15603;50.878;8.036;2024-03-25T03:11:23;2.63;;;1.27;;
28353;SDS011;15603;50.878;8.036;2024-03-25T03:13:49;1.90;;;0.60;;
28353;SDS011;15603;50.878;8.036;2024-03-25T03:16:15;3.22;;;0.60;;
28353;SDS011;15603;50.878;8.036;2024-03-25T03:18:41;3.70;;;1.23;;
28353;SDS011;15603;50.878;8.036;2024-03-25T03:21:08;1.23;;;0.95;;
28353;SDS011;15603;50.878;8.036;2024-03-25T03:23:36;2.47;;;0.98;;
28353;SDS011;15603;50.878;8.036;2024-03-25T03:26:05;3.55;;;1.17;;
28353;SDS011;15603;50.878;8.036;2024-03-25T03:28:31;4.57;;;1.33;;
28353;SDS011;15603;50.878;8.036;2024-03-25T03:30:57;3.05;;;1.02;;
28353;SDS011;15603;50.878;8.036;2024-03-25T03:33:24;2.28;;;1.13;;
28353;SDS011;15603;50.878;8.036;2024-03-25T03:35:50;3.42;;;1.55;;
28353;SDS011;15603;50.878;8.036;2024-03-25T03:38:17;8.38;;;2.63;;
28353;SDS011;15603;50.878;8.036;2024-03-25T03:40:46;9.23;;;1.60;;
28353;SDS011;15603;50.878;8.036;2024-03-25T03:43:21;9.02;;;3.70;;
28353;SDS011;15603;50.878;8.036;2024-03-25T03:45:48;14.75;;;2.70;;
28353;SDS011;15603;50.878;8.036;2024-03-25T03:48:14;8.35;;;2.33;;
28353;SDS011;15603;50.878;8.036;2024-03-25T03:50:40;4.47;;;2.28;;
28353;SDS011;15603;50.878;8.036;2024-03-25T03:53:07;10.73;;;1.55;;
28353;SDS011;15603;50.878;8.036;2024-03-25T03:55:33;6.88;;;2.13;;
28353;SDS011;15603;50.878;8.036;2024-03-25T03:57:59;13.63;;;2.30;;
28353;SDS011;15603;50.878;8.036;2024-03-25T04:00:25;13.27;;;2.88;;
28353;SDS011;15603;50.878;8.036;2024-03-25T04:02:52;7.78;;;2.25;;
28353;SDS011;15603;50.878;8.036;2024-03-25T04:05:18;9.25;;;2.25;;
28353;SDS011;15603;50.878;8.036;2024-03-25T04:07:44;2.45;;;1.95;;
28353;SDS011;15603;50.878;8.036;2024-03-25T04:10:10;8.60;;;1.95;;
28353;SDS011;15603;50.878;8.036;2024-03-25T04:12:36;9.60;;;2.17;;
28353;SDS011;15603;50.878;8.036;2024-03-25T04:15:03;5.78;;;2.35;;
28353;SDS011;15603;50.878;8.036;2024-03-25T04:17:29;3.08;;;1.92;;
28353;SDS011;15603;50.878;8.036;2024-03-25T04:19:58;11.23;;;2.90;;
28353;SDS011;15603;50.878;8.036;2024-03-25T04:22:26;6.63;;;3.03;;
28353;SDS011;15603;50.878;8.036;2024-03-25T04:24:52;7.68;;;2.97;;
28353;SDS011;15603;50.878;8.036;2024-03-25T04:27:18;16.15;;;2.90;;
28353;SDS011;15603;50.878;8.036;2024-03-25T04:29:46;5.65;;;2.25;;
28353;SDS011;15603;50.878;8.036;2024-03-25T04:32:12;10.18;;;3.08;;
28353;SDS011;15603;50.878;8.036;2024-03-25T04:34:39;12.25;;;2.42;;
28353;SDS011;15603;50.878;8.036;2024-03-25T04:37:05;4.03;;;2.25;;
28353;SDS011;15603;50.878;8.036;2024-03-25T04:39:31;8.50;;;2.65;;
28353;SDS011;15603;50.878;8.036;2024-03-25T04:41:57;10.00;;;3.60;;
28353;SDS011;15603;50.878;8.036;2024-03-25T04:44:24;11.30;;;3.08;;
28353;SDS011;15603;50.878;8.036;2024-03-25T04:46:50;4.53;;;2.42;;
28353;SDS011;15603;50.878;8.036;2024-03-25T04:49:16;6.43;;;2.75;;
28353;SDS011;15603;50.878;8.036;2024-03-25T04:51:42;11.00;;;2.60;;
28353;SDS011;15603;50.878;8.036;2024-03-25T04:54:09;10.75;;;2.70;;
28353;SDS011;15603;50.878;8.036;2024-03-25T04:56:35;5.22;;;3.08;;
28353;SDS011;15603;50.878;8.036;2024-03-25T04:59:01;6.25;;;2.63;;
28353;SDS011;15603;50.878;8.036;2024-03-25T05:01:28;12.27;;;2.92;;
28353;SDS011;15603;50.878;8.036;2024-03-25T05:03:54;4.68;;;2.20;;
28353;SDS011;15603;50.878;8.036;2024-03-25T05:06:20;9.20;;;2.90;;
28353;SDS011;15603;50.878;8.036;2024-03-25T05:08:47;10.05;;;2.80;;
28353;SDS011;15603;50.878;8.036;2024-03-25T05:11:13;13.05;;;3.17;;
28353;SDS011;15603;50.878;8.036;2024-03-25T05:13:40;8.90;;;3.20;;
28353;SDS011;15603;50.878;8.036;2024-03-25T05:16:06;8.63;;;3.05;;
28353;SDS011;15603;50.878;8.036;2024-03-25T05:18:32;7.53;;;2.83;;
28353;SDS011;15603;50.878;8.036;2024-03-25T05:20:58;11.10;;;3.50;;
28353;SDS011;15603;50.878;8.036;2024-03-25T05:23:25;17.77;;;3.35;;
28353;SDS011;15603;50.878;8.036;2024-03-25T05:25:51;15.82;;;3.55;;
28353;SDS011;15603;50.878;8.036;2024-03-25T05:28:17;14.65;;;2.72;;
28353;SDS011;15603;50.878;8.036;2024-03-25T05:30:43;4.70;;;2.85;;
28353;SDS011;15603;50.878;8.036;2024-03-25T05:33:09;8.07;;;2.45;;
28353;SDS011;15603;50.878;8.036;2024-03-25T05:35:35;13.65;;;3.88;;
28353;SDS011;15603;50.878;8.036;2024-03-25T05:38:02;7.90;;;2.97;;
28353;SDS011;15603;50.878;8.036;2024-03-25T05:40:29;7.10;;;2.80;;
28353;SDS011;15603;50.878;8.036;2024-03-25T05:42:55;11.07;;;3.25;;
28353;SDS011;15603;50.878;8.036;2024-03-25T05:45:21;16.02;;;3.05;;
28353;SDS011;15603;50.878;8.036;2024-03-25T05:47:49;13.13;;;3.30;;
28353;SDS011;15603;50.878;8.036;2024-03-25T05:50:16;3.80;;;2.67;;
28353;SDS011;15603;50.878;8.036;2024-03-25T05:52:42;3.20;;;2.17;;
28353;SDS011;15603;50.878;8.036;2024-03-25T05:55:08;8.13;;;2.70;;
28353;SDS011;15603;50.878;8.036;2024-03-25T05:57:38;8.18;;;3.63;;
28353;SDS011;15603;50.878;8.036;2024-03-25T06:00:04;6.30;;;3.05;;
28353;SDS011;15603;50.878;8.036;2024-03-25T06:02:37;7.38;;;3.00;;
28353;SDS011;15603;50.878;8.036;2024-03-25T06:05:04;8.57;;;2.90;;
28353;SDS011;15603;50.878;8.036;2024-03-25T06:07:31;11.45;;;2.85;;
28353;SDS011;15603;50.878;8.036;2024-03-25T06:09:57;9.60;;;3.53;;
28353;SDS011;15603;50.878;8.036;2024-03-25T06:12:23;10.32;;;3.17;;
28353;SDS011;15603;50.878;8.036;2024-03-25T06:14:49;8.13;;;3.10;;
28353;SDS011;15603;50.878;8.036;2024-03-25T06:17:16;5.78;;;3.30;;
28353;SDS011;15603;50.878;8.036;2024-03-25T06:19:42;8.23;;;2.72;;
28353;SDS011;15603;50.878;8.036;2024-03-25T06:22:08;11.40;;;3.85;;
28353;SDS011;15603;50.878;8.036;2024-03-25T06:24:34;7.35;;;3.10;;
28353;SDS011;15603;50.878;8.036;2024-03-25T06:27:01;7.88;;;2.70;;
28353;SDS011;15603;50.878;8.036;2024-03-25T06:29:27;13.88;;;2.67;;
28353;SDS011;15603;50.878;8.036;2024-03-25T06:31:53;9.10;;;2.55;;
28353;SDS011;15603;50.878;8.036;2024-03-25T06:34:38;13.00;;;2.60;;
28353;SDS011;15603;50.878;8.036;2024-03-25T06:37:05;11.00;;;3.97;;
28353;SDS011;15603;50.878;8.036;2024-03-25T06:39:31;12.02;;;2.70;;
28353;SDS011;15603;50.878;8.036;2024-03-25T06:41:57;5.75;;;2.80;;
28353;SDS011;15603;50.878;8.036;2024-03-25T06:44:23;8.68;;;3.08;;
28353;SDS011;15603;50.878;8.036;2024-03-25T06:46:50;4.78;;;2.40;;
28353;SDS011;15603;50.878;8.036;2024-03-25T06:49:17;11.38;;;2.97;;
28353;SDS011;15603;50.878;8.036;2024-03-25T06:51:43;9.50;;;3.15;;
28353;SDS011;15603;50.878;8.036;2024-03-25T06:54:09;9.32;;;2.95;;
28353;SDS011;15603;50.878;8.036;2024-03-25T06:56:35;6.13;;;2.90;;
28353;SDS011;15603;50.878;8.036;2024-03-25T06:59:01;5.70;;;1.90;;
28353;SDS011;15603;50.878;8.036;2024-03-25T07:01:30;6.97;;;2.47;;
28353;SDS011;15603;50.878;8.036;2024-03-25T07:03:56;6.13;;;2.38;;
28353;SDS011;15603;50.878;8.036;2024-03-25T07:06:22;11.05;;;3.13;;
28353;SDS011;15603;50.878;8.036;2024-03-25T07:08:49;13.85;;;3.97;;
28353;SDS011;15603;50.878;8.036;2024-03-25T07:11:16;11.20;;;2.92;;
28353;SDS011;15603;50.878;8.036;2024-03-25T07:13:43;10.70;;;2.65;;
28353;SDS011;15603;50.878;8.036;2024-03-25T07:16:09;8.13;;;3.40;;
28353;SDS011;15603;50.878;8.036;2024-03-25T07:18:36;10.10;;;2.60;;
28353;SDS011;15603;50.878;8.036;2024-03-25T07:21:02;9.05;;;2.78;;
28353;SDS011;15603;50.878;8.036;2024-03-25T07:23:29;11.23;;;3.30;;
28353;SDS011;15603;50.878;8.036;2024-03-25T07:25:55;10.07;;;3.03;;
28353;SDS011;15603;50.878;8.036;2024-03-25T07:28:21;8.65;;;2.78;;
28353;SDS011;15603;50.878;8.036;2024-03-25T07:30:49;10.30;;;2.50;;
28353;SDS011;15603;50.878;8.036;2024-03-25T07:33:16;11.32;;;3.13;;
28353;SDS011;15603;50.878;8.036;2024-03-25T07:35:44;9.18;;;2.60;;
28353;SDS011;15603;50.878;8.036;2024-03-25T07:38:11;11.25;;;2.63;;
28353;SDS011;15603;50.878;8.036;2024-03-25T07:40:37;8.68;;;4.07;;
28353;SDS011;15603;50.878;8.036;2024-03-25T07:43:03;14.40;;;2.88;;
28353;SDS011;15603;50.878;8.036;2024-03-25T07:45:37;5.20;;;2.75;;
28353;SDS011;15603;50.878;8.036;2024-03-25T07:48:05;5.50;;;2.05;;
28353;SDS011;15603;50.878;8.036;2024-03-25T07:50:33;14.27;;;2.42;;
28353;SDS011;15603;50.878;8.036;2024-03-25T07:53:00;13.50;;;2.90;;
28353;SDS011;15603;50.878;8.036;2024-03-25T07:55:26;14.45;;;1.73;;
28353;SDS011;15603;50.878;8.036;2024-03-25T07:57:53;11.73;;;3.10;;
28353;SDS011;15603;50.878;8.036;2024-03-25T08:00:19;7.40;;;1.73;;
28353;SDS011;15603;50.878;8.036;2024-03-25T08:02:45;6.88;;;1.95;;
28353;SDS011;15603;50.878;8.036;2024-03-25T08:05:11;8.18;;;1.35;;
28353;SDS011;15603;50.878;8.036;2024-03-25T08:07:38;4.90;;;1.60;;
28353;SDS011;15603;50.878;8.036;2024-03-25T08:10:04;7.57;;;1.33;;
28353;SDS011;15603;50.878;8.036;2024-03-25T08:12:31;6.55;;;1.80;;
28353;SDS011;15603;50.878;8.036;2024-03-25T08:14:57;7.00;;;1.60;;
28353;SDS011;15603;50.878;8.036;2024-03-25T08:17:23;6.75;;;2.65;;
28353;SDS011;15603;50.878;8.036;2024-03-25T08:19:49;6.78;;;1.83;;
28353;SDS011;15603;50.878;8.036;2024-03-25T08:22:16;9.23;;;1.80;;
28353;SDS011;15603;50.878;8.036;2024-03-25T08:24:42;5.13;;;2.25;;
28353;SDS011;15603;50.878;8.036;2024-03-25T08:27:08;6.03;;;1.30;;
28353;SDS011;15603;50.878;8.036;2024-03-25T08:29:34;9.02;;;1.65;;
28353;SDS011;15603;50.878;8.036;2024-03-25T08:32:00;6.97;;;1.27;;
28353;SDS011;15603;50.878;8.036;2024-03-25T08:34:27;3.10;;;1.35;;
28353;SDS011;15603;50.878;8.036;2024-03-25T08:36:53;5.22;;;1.50;;
28353;SDS011;15603;50.878;8.036;2024-03-25T08:39:19;7.53;;;1.83;;
28353;SDS011;15603;50.878;8.036;2024-03-25T08:41:46;16.95;;;1.90;;
28353;SDS011;15603;50.878;8.036;2024-03-25T08:44:13;5.85;;;1.35;;
28353;SDS011;15603;50.878;8.036;2024-03-25T08:46:40;7.78;;;1.38;;
28353;SDS011;15603;50.878;8.036;2024-03-25T08:49:06;7.43;;;1.73;;
28353;SDS011;15603;50.878;8.036;2024-03-25T08:51:32;1.40;;;0.63;;
28353;SDS011;15603;50.878;8.036;2024-03-25T08:54:00;9.93;;;1.00;;
28353;SDS011;15603;50.878;8.036;2024-03-25T08:56:26;12.27;;;1.15;;
28353;SDS011;15603;50.878;8.036;2024-03-25T08:58:52;6.47;;;0.95;;
28353;SDS011;15603;50.878;8.036;2024-03-25T09:01:20;5.55;;;0.80;;
28353;SDS011;15603;50.878;8.036;2024-03-25T09:03:47;6.18;;;1.10;;
28353;SDS011;15603;50.878;8.036;2024-03-25T09:06:14;12.43;;;1.35;;
28353;SDS011;15603;50.878;8.036;2024-03-25T09:08:42;8.05;;;1.00;;
28353;SDS011;15603;50.878;8.036;2024-03-25T09:11:26;6.85;;;1.05;;
28353;SDS011;15603;50.878;8.036;2024-03-25T09:13:52;4.95;;;1.17;;
28353;SDS011;15603;50.878;8.036;2024-03-25T09:16:19;4.65;;;1.45;;
28353;SDS011;15603;50.878;8.036;2024-03-25T09:18:45;4.70;;;1.08;;
28353;SDS011;15603;50.878;8.036;2024-03-25T09:21:13;4.25;;;1.35;;
28353;SDS011;15603;50.878;8.036;2024-03-25T09:23:41;2.13;;;0.85;;
28353;SDS011;15603;50.878;8.036;2024-03-25T09:26:07;0.57;;;0.30;;
28353;SDS011;15603;50.878;8.036;2024-03-25T09:28:34;6.38;;;0.50;;
28353;SDS011;15603;50.878;8.036;2024-03-25T09:31:01;6.43;;;1.73;;
28353;SDS011;15603;50.878;8.036;2024-03-25T09:33:27;3.55;;;0.75;;
28353;SDS011;15603;50.878;8.036;2024-03-25T09:35:55;2.80;;;0.98;;
28353;SDS011;15603;50.878;8.036;2024-03-25T09:38:24;8.27;;;0.70;;
28353;SDS011;15603;50.878;8.036;2024-03-25T09:40:50;7.00;;;1.10;;
28353;SDS011;15603;50.878;8.036;2024-03-25T09:43:28;1.63;;;0.80;;
28353;SDS011;15603;50.878;8.036;2024-03-25T09:45:59;5.80;;;1.02;;
28353;SDS011;15603;50.878;8.036;2024-03-25T09:48:26;3.05;;;0.55;;
28353;SDS011;15603;50.878;8.036;2024-03-25T09:50:54;6.53;;;0.60;;
28353;SDS011;15603;50.878;8.036;2024-03-25T09:53:21;2.55;;;0.80;;
28353;SDS011;15603;50.878;8.036;2024-03-25T09:55:48;3.63;;;0.70;;
28353;SDS011;15603;50.878;8.036;2024-03-25T09:58:14;5.75;;;1.23;;
28353;SDS011;15603;50.878;8.036;2024-03-25T10:00:43;2.63;;;0.82;;
28353;SDS011;15603;50.878;8.036;2024-03-25T10:03:09;10.05;;;1.10;;
28353;SDS011;15603;50.878;8.036;2024-03-25T10:05:36;2.22;;;0.80;;
28353;SDS011;15603;50.878;8.036;2024-03-25T10:08:02;2.10;;;0.70;;
28353;SDS011;15603;50.878;8.036;2024-03-25T10:10:29;10.05;;;0.95;;
28353;SDS011;15603;50.878;8.036;2024-03-25T10:12:56;2.47;;;0.63;;
28353;SDS011;15603;50.878;8.036;2024-03-25T10:15:22;8.18;;;1.00;;
28353;SDS011;15603;50.878;8.036;2024-03-25T10:17:51;4.90;;;0.85;;
28353;SDS011;15603;50.878;8.036;2024-03-25T10:20:18;5.13;;;0.63;;
28353;SDS011;15603;50.878;8.036;2024-03-25T10:22:45;4.15;;;0.57;;
28353;SDS011;15603;50.878;8.036;2024-03-25T10:25:21;7.45;;;0.57;;
28353;SDS011;15603;50.878;8.036;2024-03-25T10:27:57;7.03;;;1.20;;
28353;SDS011;15603;50.878;8.036;2024-03-25T10:30:25;1.77;;;0.50;;
28353;SDS011;15603;50.878;8.036;2024-03-25T10:33:01;3.58;;;0.70;;
28353;SDS011;15603;50.878;8.036;2024-03-25T10:35:33;9.93;;;1.33;;
28353;SDS011;15603;50.878;8.036;2024-03-25T10:38:06;10.27;;;0.70;;
28353;SDS011;15603;50.878;8.036;2024-03-25T10:40:34;4.15;;;1.13;;
28353;SDS011;15603;50.878;8.036;2024-03-25T10:43:07;6.40;;;0.68;;
28353;SDS011;15603;50.878;8.036;2024-03-25T10:45:35;1.33;;;0.57;;
28353;SDS011;15603;50.878;8.036;2024-03-25T10:48:06;4.53;;;0.88;;
28353;SDS011;15603;50.878;8.036;2024-03-25T10:50:39;2.65;;;0.60;;
28353;SDS011;15603;50.878;8.036;2024-03-25T10:53:06;14.13;;;1.50;;
28353;SDS011;15603;50.878;8.036;2024-03-25T10:55:36;5.25;;;1.00;;
28353;SDS011;15603;50.878;8.036;2024-03-25T10:58:06;10.02;;;1.55;;
28353;SDS011;15603;50.878;8.036;2024-03-25T11:00:34;5.50;;;1.13;;
28353;SDS011;15603;50.878;8.036;2024-03-25T11:03:02;7.57;;;0.93;;
28353;SDS011;15603;50.878;8.036;2024-03-25T11:05:30;4.20;;;1.55;;
28353;SDS011;15603;50.878;8.036;2024-03-25T11:07:57;2.85;;;0.50;;
28353;SDS011;15603;50.878;8.036;2024-03-25T11:10:30;8.82;;;0.60;;
28353;SDS011;15603;50.878;8.036;2024-03-25T11:12:56;19.85;;;6.07;;
28353;SDS011;15603;50.878;8.036;2024-03-25T11:15:23;12.77;;;2.17;;
28353;SDS011;15603;50.878;8.036;2024-03-25T11:17:49;2.05;;;0.57;;
28353;SDS011;15603;50.878;8.036;2024-03-25T11:20:16;6.30;;;2.15;;
28353;SDS011;15603;50.878;8.036;2024-03-25T11:22:49;3.45;;;0.77;;
28353;SDS011;15603;50.878;8.036;2024-03-25T11:25:17;2.58;;;0.45;;
28353;SDS011;15603;50.878;8.036;2024-03-25T11:27:44;5.78;;;0.90;;
28353;SDS011;15603;50.878;8.036;2024-03-25T11:30:11;1.50;;;0.43;;
28353;SDS011;15603;50.878;8.036;2024-03-25T11:32:53;3.20;;;0.85;;
28353;SDS011;15603;50.878;8.036;2024-03-25T11:35:20;4.93;;;0.73;;
28353;SDS011;15603;50.878;8.036;2024-03-25T11:37:48;2.53;;;0.75;;
28353;SDS011;15603;50.878;8.036;2024-03-25T11:40:16;1.85;;;0.65;;
28353;SDS011;15603;50.878;8.036;2024-03-25T11:42:42;1.38;;;0.50;;
28353;SDS011;15603;50.878;8.036;2024-03-25T11:45:16;2.85;;;0.90;;
28353;SDS011;15603;50.878;8.036;2024-03-25T11:47:44;1.45;;;0.50;;
28353;SDS011;15603;50.878;8.036;2024-03-25T11:50:15;3.22;;;0.50;;
28353;SDS011;15603;50.878;8.036;2024-03-25T11:52:43;1.13;;;0.40;;
28353;SDS011;15603;50.878;8.036;2024-03-25T11:55:09;2.17;;;0.57;;
28353;SDS011;15603;50.878;8.036;2024-03-25T11:57:38;1.33;;;0.57;;
28353;SDS011;15603;50.878;8.036;2024-03-25T12:00:04;1.30;;;0.60;;
28353;SDS011;15603;50.878;8.036;2024-03-25T12:02:46;5.88;;;0.70;;
28353;SDS011;15603;50.878;8.036;2024-03-25T12:05:16;9.93;;;1.27;;
28353;SDS011;15603;50.878;8.036;2024-03-25T12:07:43;1.98;;;0.60;;
28353;SDS011;15603;50.878;8.036;2024-03-25T12:10:09;1.85;;;0.38;;
28353;SDS011;15603;50.878;8.036;2024-03-25T12:12:55;4.78;;;1.05;;
28353;SDS011;15603;50.878;8.036;2024-03-25T12:15:21;2.28;;;0.47;;
28353;SDS011;15603;50.878;8.036;2024-03-25T12:17:48;0.40;;;0.20;;
28353;SDS011;15603;50.878;8.036;2024-03-25T12:20:17;8.10;;;0.90;;
28353;SDS011;15603;50.878;8.036;2024-03-25T12:22:43;0.55;;;0.20;;
28353;SDS011;15603;50.878;8.036;2024-03-25T12:25:10;1.77;;;0.57;;
28353;SDS011;15603;50.878;8.036;2024-03-25T12:27:37;4.13;;;0.50;;
28353;SDS011;15603;50.878;8.036;2024-03-25T12:30:05;4.10;;;0.28;;
28353;SDS011;15603;50.878;8.036;2024-03-25T12:35:05;2.97;;;0.82;;
28353;SDS011;15603;50.878;8.036;2024-03-25T12:37:37;2.78;;;0.60;;
28353;SDS011;15603;50.878;8.036;2024-03-25T12:40:06;3.28;;;0.40;;
28353;SDS011;15603;50.878;8.036;2024-03-25T12:42:34;1.40;;;0.30;;
28353;SDS011;15603;50.878;8.036;2024-03-25T12:45:00;3.53;;;0.52;;
28353;SDS011;15603;50.878;8.036;2024-03-25T12:47:27;4.70;;;0.88;;
28353;SDS011;15603;50.878;8.036;2024-03-25T12:49:53;2.85;;;0.57;;
28353;SDS011;15603;50.878;8.036;2024-03-25T12:52:19;1.77;;;0.45;;
28353;SDS011;15603;50.878;8.036;2024-03-25T12:54:45;6.72;;;1.08;;
28353;SDS011;15603;50.878;8.036;2024-03-25T12:57:11;5.47;;;0.57;;
28353;SDS011;15603;50.878;8.036;2024-03-25T12:59:38;5.45;;;1.23;;
28353;SDS011;15603;50.878;8.036;2024-03-25T13:02:04;5.90;;;0.85;;
28353;SDS011;15603;50.878;8.036;2024-03-25T13:04:31;3.95;;;1.40;;
28353;SDS011;15603;50.878;8.036;2024-03-25T13:06:57;2.47;;;0.28;;
28353;SDS011;15603;50.878;8.036;2024-03-25T13:09:23;1.65;;;0.30;;
28353;SDS011;15603;50.878;8.036;2024-03-25T13:11:49;4.43;;;0.80;;
28353;SDS011;15603;50.878;8.036;2024-03-25T13:14:15;1.50;;;0.63;;
28353;SDS011;15603;50.878;8.036;2024-03-25T13:16:42;0.68;;;0.30;;
28353;SDS011;15603;50.878;8.036;2024-03-25T13:19:08;2.72;;;0.47;;
28353;SDS011;15603;50.878;8.036;2024-03-25T13:21:34;1.08;;;0.57;;
28353;SDS011;15603;50.878;8.036;2024-03-25T13:24:00;3.65;;;0.73;;
28353;SDS011;15603;50.878;8.036;2024-03-25T13:26:26;1.40;;;0.50;;
28353;SDS011;15603;50.878;8.036;2024-03-25T13:28:53;5.45;;;0.93;;
28353;SDS011;15603;50.878;8.036;2024-03-25T13:31:20;1.95;;;0.30;;
28353;SDS011;15603;50.878;8.036;2024-03-25T13:33:46;0.90;;;0.22;;
28353;SDS011;15603;50.878;8.036;2024-03-25T13:36:12;0.47;;;0.20;;
28353;SDS011;15603;50.878;8.036;2024-03-25T13:38:38;4.18;;;0.80;;
28353;SDS011;15603;50.878;8.036;2024-03-25T13:41:05;3.80;;;0.55;;
28353;SDS011;15603;50.878;8.036;2024-03-25T13:43:32;1.45;;;0.40;;
28353;SDS011;15603;50.878;8.036;2024-03-25T13:45:58;2.70;;;0.80;;
28353;SDS011;15603;50.878;8.036;2024-03-25T13:48:24;6.40;;;0.55;;
28353;SDS011;15603;50.878;8.036;2024-03-25T13:50:53;4.45;;;0.73;;
28353;SDS011;15603;50.878;8.036;2024-03-25T13:53:20;2.65;;;0.40;;
28353;SDS011;15603;50.878;8.036;2024-03-25T13:55:46;3.83;;;0.63;;
28353;SDS011;15603;50.878;8.036;2024-03-25T13:58:13;3.88;;;0.50;;
28353;SDS011;15603;50.878;8.036;2024-03-25T14:00:39;2.80;;;0.52;;
28353;SDS011;15603;50.878;8.036;2024-03-25T14:03:06;4.25;;;0.40;;
28353;SDS011;15603;50.878;8.036;2024-03-25T14:05:32;4.53;;;0.60;;
28353;SDS011;15603;50.878;8.036;2024-03-25T14:07:59;0.43;;;0.30;;
28353;SDS011;15603;50.878;8.036;2024-03-25T14:10:25;3.72;;;0.52;;
28353;SDS011;15603;50.878;8.036;2024-03-25T14:12:51;3.55;;;0.55;;
28353;SDS011;15603;50.878;8.036;2024-03-25T14:15:17;7.00;;;0.45;;
28353;SDS011;15603;50.878;8.036;2024-03-25T14:17:45;3.15;;;0.57;;
28353;SDS011;15603;50.878;8.036;2024-03-25T14:20:11;1.60;;;0.40;;
28353;SDS011;15603;50.878;8.036;2024-03-25T14:22:37;2.15;;;0.47;;
28353;SDS011;15603;50.878;8.036;2024-03-25T14:25:04;1.38;;;0.45;;
28353;SDS011;15603;50.878;8.036;2024-03-25T14:27:30;3.45;;;0.32;;
28353;SDS011;15603;50.878;8.036;2024-03-25T14:29:57;3.45;;;0.40;;
28353;SDS011;15603;50.878;8.036;2024-03-25T14:32:23;2.72;;;0.40;;
28353;SDS011;15603;50.878;8.036;2024-03-25T14:34:51;2.65;;;0.35;;
28353;SDS011;15603;50.878;8.036;2024-03-25T14:37:17;4.03;;;0.47;;
28353;SDS011;15603;50.878;8.036;2024-03-25T14:39:43;3.63;;;0.70;;
28353;SDS011;15603;50.878;8.036;2024-03-25T14:42:10;2.63;;;0.28;;
28353;SDS011;15603;50.878;8.036;2024-03-25T14:44:36;6.18;;;0.55;;
28353;SDS011;15603;50.878;8.036;2024-03-25T14:47:03;0.57;;;0.20;;